sensor_id;sensor_type;location;lat;lon;timestamp;temperature;humidity
16200;DHT22;8207;52.494;4.654;2023-04-01T00:02:26;10.00;99.90
16200;DHT22;8207;52.494;4.654;2023-04-01T00:04:53;10.00;99.90
16200;DHT22;8207;52.494;4.654;2023-04-01T00:07:20;10.00;99.90
16200;DHT22;8207;52.494;4.654;2023-04-01T00:09:49;10.00;99.90
16200;DHT22;8207;52.494;4.654;2023-04-01T00:12:16;10.00;99.90
16200;DHT22;8207;52.494;4.654;2023-04-01T00:14:43;10.00;99.90
16200;DHT22;8207;52.494;4.654;2023-04-01T00:17:10;10.00;99.90
16200;DHT22;8207;52.494;4.654;2023-04-01T00:19:37;10.00;99.90
16200;DHT22;8207;52.494;4.654;2023-04-01T00:22:04;10.00;99.90
16200;DHT22;8207;52.494;4.654;2023-04-01T00:24:31;10.00;99.90
16200;DHT22;8207;52.494;4.654;2023-04-01T00:26:59;10.00;99.90
16200;DHT22;8207;52.494;4.654;2023-04-01T00:29:26;10.00;99.90
16200;DHT22;8207;52.494;4.654;2023-04-01T00:31:56;10.00;99.90
16200;DHT22;8207;52.494;4.654;2023-04-01T00:34:23;10.00;99.90
16200;DHT22;8207;52.494;4.654;2023-04-01T00:36:51;10.00;99.90
16200;DHT22;8207;52.494;4.654;2023-04-01T00:39:20;10.00;99.90
16200;DHT22;8207;52.494;4.654;2023-04-01T00:41:47;10.10;99.90
16200;DHT22;8207;52.494;4.654;2023-04-01T00:44:18;10.10;99.90
16200;DHT22;8207;52.494;4.654;2023-04-01T00:46:46;10.10;99.90
16200;DHT22;8207;52.494;4.654;2023-04-01T00:49:14;10.10;99.90
16200;DHT22;8207;52.494;4.654;2023-04-01T00:51:42;10.00;99.90
16200;DHT22;8207;52.494;4.654;2023-04-01T00:54:10;10.00;99.90
16200;DHT22;8207;52.494;4.654;2023-04-01T00:56:39;10.10;99.90
16200;DHT22;8207;52.494;4.654;2023-04-01T00:59:13;10.10;99.90
16200;DHT22;8207;52.494;4.654;2023-04-01T01:01:43;10.10;99.90
16200;DHT22;8207;52.494;4.654;2023-04-01T01:04:26;10.10;99.90
16200;DHT22;8207;52.494;4.654;2023-04-01T01:07:05;10.10;99.90
16200;DHT22;8207;52.494;4.654;2023-04-01T01:09:43;10.10;99.90
16200;DHT22;8207;52.494;4.654;2023-04-01T01:12:16;10.10;99.90
16200;DHT22;8207;52.494;4.654;2023-04-01T01:15:02;10.10;99.90
16200;DHT22;8207;52.494;4.654;2023-04-01T01:17:43;10.10;99.90
16200;DHT22;8207;52.494;4.654;2023-04-01T01:23:56;10.20;99.90
16200;DHT22;8207;52.494;4.654;2023-04-01T01:26:40;10.10;99.90
16200;DHT22;8207;52.494;4.654;2023-04-01T01:29:40;10.10;99.90
16200;DHT22;8207;52.494;4.654;2023-04-01T01:32:18;10.10;99.90
16200;DHT22;8207;52.494;4.654;2023-04-01T01:34:53;10.10;99.90
16200;DHT22;8207;52.494;4.654;2023-04-01T01:37:26;10.10;99.90
16200;DHT22;8207;52.494;4.654;2023-04-01T01:39:58;10.10;99.90
16200;DHT22;8207;52.494;4.654;2023-04-01T01:42:27;10.10;99.90
16200;DHT22;8207;52.494;4.654;2023-04-01T01:44:57;10.10;99.90
16200;DHT22;8207;52.494;4.654;2023-04-01T01:47:25;10.10;99.90
16200;DHT22;8207;52.494;4.654;2023-04-01T01:49:54;10.20;99.90
16200;DHT22;8207;52.494;4.654;2023-04-01T01:52:22;10.20;99.90
16200;DHT22;8207;52.494;4.654;2023-04-01T01:54:52;10.20;99.90
16200;DHT22;8207;52.494;4.654;2023-04-01T01:57:22;10.30;99.90
16200;DHT22;8207;52.494;4.654;2023-04-01T01:59:52;10.30;99.90
16200;DHT22;8207;52.494;4.654;2023-04-01T02:02:21;10.40;99.90
16200;DHT22;8207;52.494;4.654;2023-04-01T02:04:49;10.40;99.90
16200;DHT22;8207;52.494;4.654;2023-04-01T02:07:21;10.40;99.90
16200;DHT22;8207;52.494;4.654;2023-04-01T02:09:52;10.50;99.90
16200;DHT22;8207;52.494;4.654;2023-04-01T02:12:19;10.50;99.90
16200;DHT22;8207;52.494;4.654;2023-04-01T02:14:52;10.50;99.90
16200;DHT22;8207;52.494;4.654;2023-04-01T02:17:22;10.50;99.90
16200;DHT22;8207;52.494;4.654;2023-04-01T02:19:51;10.50;99.90
16200;DHT22;8207;52.494;4.654;2023-04-01T02:22:22;10.50;99.90
16200;DHT22;8207;52.494;4.654;2023-04-01T02:24:54;10.50;99.90
16200;DHT22;8207;52.494;4.654;2023-04-01T02:27:24;10.50;99.90
16200;DHT22;8207;52.494;4.654;2023-04-01T02:29:51;10.60;99.90
16200;DHT22;8207;52.494;4.654;2023-04-01T02:32:19;10.60;99.90
16200;DHT22;8207;52.494;4.654;2023-04-01T02:34:47;10.60;99.90
16200;DHT22;8207;52.494;4.654;2023-04-01T02:37:15;10.60;99.90
16200;DHT22;8207;52.494;4.654;2023-04-01T02:39:42;10.60;99.90
16200;DHT22;8207;52.494;4.654;2023-04-01T02:42:11;10.60;99.90
16200;DHT22;8207;52.494;4.654;2023-04-01T02:44:38;10.60;99.90
16200;DHT22;8207;52.494;4.654;2023-04-01T02:47:05;10.60;99.90
16200;DHT22;8207;52.494;4.654;2023-04-01T02:49:32;10.50;99.90
16200;DHT22;8207;52.494;4.654;2023-04-01T02:51:59;10.50;99.90
16200;DHT22;8207;52.494;4.654;2023-04-01T02:54:26;10.50;99.90
16200;DHT22;8207;52.494;4.654;2023-04-01T02:56:52;10.50;99.90
16200;DHT22;8207;52.494;4.654;2023-04-01T02:59:21;10.50;99.90
16200;DHT22;8207;52.494;4.654;2023-04-01T03:01:48;10.50;99.90
16200;DHT22;8207;52.494;4.654;2023-04-01T03:04:15;10.50;99.90
16200;DHT22;8207;52.494;4.654;2023-04-01T03:06:42;10.40;99.90
16200;DHT22;8207;52.494;4.654;2023-04-01T03:09:09;10.50;99.90
16200;DHT22;8207;52.494;4.654;2023-04-01T03:11:36;10.50;99.90
16200;DHT22;8207;52.494;4.654;2023-04-01T03:14:03;10.50;99.90
16200;DHT22;8207;52.494;4.654;2023-04-01T03:16:31;10.40;99.90
16200;DHT22;8207;52.494;4.654;2023-04-01T03:18:58;10.50;99.90
16200;DHT22;8207;52.494;4.654;2023-04-01T03:21:27;10.40;99.90
16200;DHT22;8207;52.494;4.654;2023-04-01T03:23:54;10.40;99.90
16200;DHT22;8207;52.494;4.654;2023-04-01T03:26:21;10.40;99.90
16200;DHT22;8207;52.494;4.654;2023-04-01T03:28:48;10.30;99.90
16200;DHT22;8207;52.494;4.654;2023-04-01T03:31:15;10.30;99.90
16200;DHT22;8207;52.494;4.654;2023-04-01T03:33:44;10.30;99.90
16200;DHT22;8207;52.494;4.654;2023-04-01T03:36:11;10.30;99.90
16200;DHT22;8207;52.494;4.654;2023-04-01T03:38:38;10.30;99.90
16200;DHT22;8207;52.494;4.654;2023-04-01T03:41:06;10.20;99.90
16200;DHT22;8207;52.494;4.654;2023-04-01T03:43:33;10.20;99.90
16200;DHT22;8207;52.494;4.654;2023-04-01T03:46:00;10.20;99.90
16200;DHT22;8207;52.494;4.654;2023-04-01T03:48:27;10.20;99.90
16200;DHT22;8207;52.494;4.654;2023-04-01T03:50:55;10.20;99.90
16200;DHT22;8207;52.494;4.654;2023-04-01T03:53:22;10.20;99.90
16200;DHT22;8207;52.494;4.654;2023-04-01T03:55:49;10.20;99.90
16200;DHT22;8207;52.494;4.654;2023-04-01T03:58:17;10.20;99.90
16200;DHT22;8207;52.494;4.654;2023-04-01T04:00:44;10.20;99.90
16200;DHT22;8207;52.494;4.654;2023-04-01T04:03:10;10.20;99.90
16200;DHT22;8207;52.494;4.654;2023-04-01T04:05:38;10.10;99.90
16200;DHT22;8207;52.494;4.654;2023-04-01T04:08:13;10.10;99.90
16200;DHT22;8207;52.494;4.654;2023-04-01T04:10:40;10.10;99.90
16200;DHT22;8207;52.494;4.654;2023-04-01T04:13:07;10.10;99.90
16200;DHT22;8207;52.494;4.654;2023-04-01T04:15:34;10.10;99.90
16200;DHT22;8207;52.494;4.654;2023-04-01T04:18:01;10.00;99.90
16200;DHT22;8207;52.494;4.654;2023-04-01T04:20:27;10.10;99.90
16200;DHT22;8207;52.494;4.654;2023-04-01T04:22:54;10.10;99.90
16200;DHT22;8207;52.494;4.654;2023-04-01T04:25:23;10.10;99.90
16200;DHT22;8207;52.494;4.654;2023-04-01T04:27:50;10.10;99.90
16200;DHT22;8207;52.494;4.654;2023-04-01T04:30:17;10.10;99.90
16200;DHT22;8207;52.494;4.654;2023-04-01T04:32:44;10.10;99.90
16200;DHT22;8207;52.494;4.654;2023-04-01T04:35:10;10.10;99.90
16200;DHT22;8207;52.494;4.654;2023-04-01T04:37:37;10.10;99.90
16200;DHT22;8207;52.494;4.654;2023-04-01T04:40:05;10.00;99.90
16200;DHT22;8207;52.494;4.654;2023-04-01T04:42:34;10.00;99.90
16200;DHT22;8207;52.494;4.654;2023-04-01T04:45:01;10.00;99.90
16200;DHT22;8207;52.494;4.654;2023-04-01T04:47:28;10.00;99.90
16200;DHT22;8207;52.494;4.654;2023-04-01T04:49:55;10.00;99.90
16200;DHT22;8207;52.494;4.654;2023-04-01T04:52:22;10.00;99.90
16200;DHT22;8207;52.494;4.654;2023-04-01T04:54:49;9.90;99.90
16200;DHT22;8207;52.494;4.654;2023-04-01T04:57:16;9.90;99.90
16200;DHT22;8207;52.494;4.654;2023-04-01T04:59:44;9.90;99.90
16200;DHT22;8207;52.494;4.654;2023-04-01T05:02:11;9.90;99.90
16200;DHT22;8207;52.494;4.654;2023-04-01T05:04:38;9.90;99.90
16200;DHT22;8207;52.494;4.654;2023-04-01T05:07:05;9.90;99.90
16200;DHT22;8207;52.494;4.654;2023-04-01T05:09:32;9.90;99.90
16200;DHT22;8207;52.494;4.654;2023-04-01T05:11:59;9.90;99.90
16200;DHT22;8207;52.494;4.654;2023-04-01T05:14:26;9.90;99.90
16200;DHT22;8207;52.494;4.654;2023-04-01T05:16:54;9.90;99.90
16200;DHT22;8207;52.494;4.654;2023-04-01T05:19:21;9.90;99.90
16200;DHT22;8207;52.494;4.654;2023-04-01T05:21:48;9.80;99.90
16200;DHT22;8207;52.494;4.654;2023-04-01T05:24:15;9.80;99.90
16200;DHT22;8207;52.494;4.654;2023-04-01T05:26:42;9.80;99.90
16200;DHT22;8207;52.494;4.654;2023-04-01T05:29:10;9.80;99.90
16200;DHT22;8207;52.494;4.654;2023-04-01T05:31:37;9.80;99.90
16200;DHT22;8207;52.494;4.654;2023-04-01T05:34:05;9.80;99.90
16200;DHT22;8207;52.494;4.654;2023-04-01T05:36:32;9.80;99.90
16200;DHT22;8207;52.494;4.654;2023-04-01T05:38:59;9.80;99.90
16200;DHT22;8207;52.494;4.654;2023-04-01T05:41:26;9.80;99.90
16200;DHT22;8207;52.494;4.654;2023-04-01T05:43:54;9.80;99.90
16200;DHT22;8207;52.494;4.654;2023-04-01T05:46:21;9.80;99.90
16200;DHT22;8207;52.494;4.654;2023-04-01T05:48:47;9.80;99.90
16200;DHT22;8207;52.494;4.654;2023-04-01T05:51:16;9.80;99.90
16200;DHT22;8207;52.494;4.654;2023-04-01T05:53:43;9.80;99.90
16200;DHT22;8207;52.494;4.654;2023-04-01T05:56:10;9.80;99.90
16200;DHT22;8207;52.494;4.654;2023-04-01T05:58:37;9.80;99.90
16200;DHT22;8207;52.494;4.654;2023-04-01T06:01:05;9.80;99.90
16200;DHT22;8207;52.494;4.654;2023-04-01T06:03:35;9.80;99.90
16200;DHT22;8207;52.494;4.654;2023-04-01T06:06:03;9.80;99.90
16200;DHT22;8207;52.494;4.654;2023-04-01T06:08:32;9.80;99.90
16200;DHT22;8207;52.494;4.654;2023-04-01T06:11:07;9.80;99.90
16200;DHT22;8207;52.494;4.654;2023-04-01T06:13:52;9.70;99.90
16200;DHT22;8207;52.494;4.654;2023-04-01T06:16:31;9.80;99.90
16200;DHT22;8207;52.494;4.654;2023-04-01T06:19:14;9.70;99.90
16200;DHT22;8207;52.494;4.654;2023-04-01T06:22:32;9.70;99.90
16200;DHT22;8207;52.494;4.654;2023-04-01T06:25:31;9.80;99.90
16200;DHT22;8207;52.494;4.654;2023-04-01T06:28:17;9.70;99.90
16200;DHT22;8207;52.494;4.654;2023-04-01T06:30:51;9.70;99.90
16200;DHT22;8207;52.494;4.654;2023-04-01T06:33:37;9.70;99.90
16200;DHT22;8207;52.494;4.654;2023-04-01T06:36:39;9.70;99.90
16200;DHT22;8207;52.494;4.654;2023-04-01T06:39:25;9.70;99.90
16200;DHT22;8207;52.494;4.654;2023-04-01T06:42:15;9.80;99.90
16200;DHT22;8207;52.494;4.654;2023-04-01T06:44:54;9.80;99.90
16200;DHT22;8207;52.494;4.654;2023-04-01T06:47:33;9.80;99.90
16200;DHT22;8207;52.494;4.654;2023-04-01T06:50:09;9.80;99.90
16200;DHT22;8207;52.494;4.654;2023-04-01T06:52:44;9.90;99.90
16200;DHT22;8207;52.494;4.654;2023-04-01T06:55:24;9.80;99.90
16200;DHT22;8207;52.494;4.654;2023-04-01T06:57:56;9.80;99.90
16200;DHT22;8207;52.494;4.654;2023-04-01T07:00:29;9.90;99.90
16200;DHT22;8207;52.494;4.654;2023-04-01T07:03:04;9.90;99.90
16200;DHT22;8207;52.494;4.654;2023-04-01T07:05:33;9.90;99.90
16200;DHT22;8207;52.494;4.654;2023-04-01T07:08:03;9.90;99.90
16200;DHT22;8207;52.494;4.654;2023-04-01T07:10:35;9.90;99.90
16200;DHT22;8207;52.494;4.654;2023-04-01T07:13:12;10.00;99.90
16200;DHT22;8207;52.494;4.654;2023-04-01T07:15:42;9.90;99.90
16200;DHT22;8207;52.494;4.654;2023-04-01T07:18:14;10.00;99.90
16200;DHT22;8207;52.494;4.654;2023-04-01T07:20:43;10.00;99.90
16200;DHT22;8207;52.494;4.654;2023-04-01T07:23:16;10.00;99.90
16200;DHT22;8207;52.494;4.654;2023-04-01T07:25:51;10.10;99.90
16200;DHT22;8207;52.494;4.654;2023-04-01T07:28:20;10.10;99.90
16200;DHT22;8207;52.494;4.654;2023-04-01T07:30:59;10.20;99.90
16200;DHT22;8207;52.494;4.654;2023-04-01T07:33:35;10.10;99.90
16200;DHT22;8207;52.494;4.654;2023-04-01T07:36:10;10.20;99.90
16200;DHT22;8207;52.494;4.654;2023-04-01T07:38:46;10.20;99.90
16200;DHT22;8207;52.494;4.654;2023-04-01T07:41:20;10.20;99.90
16200;DHT22;8207;52.494;4.654;2023-04-01T07:44:00;10.20;99.90
16200;DHT22;8207;52.494;4.654;2023-04-01T07:46:57;10.20;99.90
16200;DHT22;8207;52.494;4.654;2023-04-01T07:49:31;10.30;99.90
16200;DHT22;8207;52.494;4.654;2023-04-01T07:52:03;10.20;99.90
16200;DHT22;8207;52.494;4.654;2023-04-01T07:54:40;10.20;99.90
16200;DHT22;8207;52.494;4.654;2023-04-01T07:57:12;10.30;99.90
16200;DHT22;8207;52.494;4.654;2023-04-01T07:59:52;10.40;99.90
16200;DHT22;8207;52.494;4.654;2023-04-01T08:02:31;10.30;99.90
16200;DHT22;8207;52.494;4.654;2023-04-01T08:05:13;10.30;99.90
16200;DHT22;8207;52.494;4.654;2023-04-01T08:07:47;10.40;99.90
16200;DHT22;8207;52.494;4.654;2023-04-01T08:10:19;10.40;99.90
16200;DHT22;8207;52.494;4.654;2023-04-01T08:12:56;10.40;99.90
16200;DHT22;8207;52.494;4.654;2023-04-01T08:15:29;10.40;99.90
16200;DHT22;8207;52.494;4.654;2023-04-01T08:18:11;10.40;99.90
16200;DHT22;8207;52.494;4.654;2023-04-01T08:20:41;10.40;99.90
16200;DHT22;8207;52.494;4.654;2023-04-01T08:23:14;10.40;99.90
16200;DHT22;8207;52.494;4.654;2023-04-01T08:25:47;10.50;99.90
16200;DHT22;8207;52.494;4.654;2023-04-01T08:28:19;10.50;99.90
16200;DHT22;8207;52.494;4.654;2023-04-01T08:30:53;10.60;99.90
16200;DHT22;8207;52.494;4.654;2023-04-01T08:33:24;10.60;99.90
16200;DHT22;8207;52.494;4.654;2023-04-01T08:35:55;10.60;99.90
16200;DHT22;8207;52.494;4.654;2023-04-01T08:38:28;10.60;99.90
16200;DHT22;8207;52.494;4.654;2023-04-01T08:41:01;10.50;99.90
16200;DHT22;8207;52.494;4.654;2023-04-01T08:43:51;10.60;99.90
16200;DHT22;8207;52.494;4.654;2023-04-01T08:49:28;10.70;99.90
16200;DHT22;8207;52.494;4.654;2023-04-01T08:52:22;10.60;99.90
16200;DHT22;8207;52.494;4.654;2023-04-01T08:55:19;10.70;99.90
16200;DHT22;8207;52.494;4.654;2023-04-01T09:00:40;10.70;99.90
16200;DHT22;8207;52.494;4.654;2023-04-01T09:03:37;10.80;99.90
16200;DHT22;8207;52.494;4.654;2023-04-01T09:06:28;10.70;99.90
16200;DHT22;8207;52.494;4.654;2023-04-01T09:09:19;10.80;99.90
16200;DHT22;8207;52.494;4.654;2023-04-01T09:18:35;11.00;99.90
16200;DHT22;8207;52.494;4.654;2023-04-01T09:21:24;11.00;99.90
16200;DHT22;8207;52.494;4.654;2023-04-01T09:24:05;11.00;99.90
16200;DHT22;8207;52.494;4.654;2023-04-01T09:26:48;11.00;99.90
16200;DHT22;8207;52.494;4.654;2023-04-01T09:29:37;11.00;99.90
16200;DHT22;8207;52.494;4.654;2023-04-01T09:32:39;11.00;99.90
16200;DHT22;8207;52.494;4.654;2023-04-01T09:35:22;11.10;99.90
16200;DHT22;8207;52.494;4.654;2023-04-01T09:37:58;11.10;99.90
16200;DHT22;8207;52.494;4.654;2023-04-01T09:40:40;11.10;99.90
16200;DHT22;8207;52.494;4.654;2023-04-01T09:43:21;11.10;99.90
16200;DHT22;8207;52.494;4.654;2023-04-01T09:49:07;11.10;99.90
16200;DHT22;8207;52.494;4.654;2023-04-01T09:51:44;11.20;99.90
16200;DHT22;8207;52.494;4.654;2023-04-01T09:54:28;11.30;99.90
16200;DHT22;8207;52.494;4.654;2023-04-01T09:57:39;11.30;99.90
16200;DHT22;8207;52.494;4.654;2023-04-01T10:00:35;11.20;99.90
16200;DHT22;8207;52.494;4.654;2023-04-01T10:12:46;11.40;99.90
16200;DHT22;8207;52.494;4.654;2023-04-01T10:18:58;11.70;99.90
16200;DHT22;8207;52.494;4.654;2023-04-01T10:21:56;11.80;99.90
16200;DHT22;8207;52.494;4.654;2023-04-01T10:25:03;11.90;99.90
16200;DHT22;8207;52.494;4.654;2023-04-01T10:27:56;11.90;99.90
16200;DHT22;8207;52.494;4.654;2023-04-01T10:31:08;12.00;99.90
16200;DHT22;8207;52.494;4.654;2023-04-01T10:34:05;12.00;99.90
16200;DHT22;8207;52.494;4.654;2023-04-01T10:36:47;12.00;99.90
16200;DHT22;8207;52.494;4.654;2023-04-01T10:45:59;12.00;99.90
16200;DHT22;8207;52.494;4.654;2023-04-01T10:54:49;11.90;99.90
16200;DHT22;8207;52.494;4.654;2023-04-01T10:57:51;11.90;99.90
16200;DHT22;8207;52.494;4.654;2023-04-01T11:04:26;12.00;99.90
16200;DHT22;8207;52.494;4.654;2023-04-01T11:16:44;12.50;99.90
16200;DHT22;8207;52.494;4.654;2023-04-01T11:19:42;12.50;99.90
16200;DHT22;8207;52.494;4.654;2023-04-01T11:22:26;12.70;99.90
16200;DHT22;8207;52.494;4.654;2023-04-01T11:25:23;12.70;99.90
16200;DHT22;8207;52.494;4.654;2023-04-01T11:28:17;12.60;99.90
16200;DHT22;8207;52.494;4.654;2023-04-01T11:33:45;12.90;99.90
16200;DHT22;8207;52.494;4.654;2023-04-01T11:36:33;13.00;99.90
16200;DHT22;8207;52.494;4.654;2023-04-01T11:39:14;13.00;99.90
16200;DHT22;8207;52.494;4.654;2023-04-01T11:41:53;13.00;99.90
16200;DHT22;8207;52.494;4.654;2023-04-01T11:44:26;13.00;99.90
16200;DHT22;8207;52.494;4.654;2023-04-01T11:47:09;12.90;99.90
16200;DHT22;8207;52.494;4.654;2023-04-01T11:49:50;12.90;99.90
16200;DHT22;8207;52.494;4.654;2023-04-01T11:52:26;12.80;99.90
16200;DHT22;8207;52.494;4.654;2023-04-01T11:55:10;12.90;99.90
16200;DHT22;8207;52.494;4.654;2023-04-01T11:57:51;12.90;99.90
16200;DHT22;8207;52.494;4.654;2023-04-01T12:00:41;12.90;99.90
16200;DHT22;8207;52.494;4.654;2023-04-01T12:03:27;13.10;99.90
16200;DHT22;8207;52.494;4.654;2023-04-01T12:06:02;13.10;99.90
16200;DHT22;8207;52.494;4.654;2023-04-01T12:08:40;13.10;99.90
16200;DHT22;8207;52.494;4.654;2023-04-01T12:11:17;13.20;99.90
16200;DHT22;8207;52.494;4.654;2023-04-01T12:13:53;13.20;99.90
16200;DHT22;8207;52.494;4.654;2023-04-01T12:16:33;13.30;99.90
16200;DHT22;8207;52.494;4.654;2023-04-01T12:19:11;13.20;99.90
16200;DHT22;8207;52.494;4.654;2023-04-01T12:21:50;13.30;99.90
16200;DHT22;8207;52.494;4.654;2023-04-01T12:24:45;13.30;99.90
16200;DHT22;8207;52.494;4.654;2023-04-01T12:27:26;13.50;99.90
16200;DHT22;8207;52.494;4.654;2023-04-01T12:30:09;13.50;99.90
16200;DHT22;8207;52.494;4.654;2023-04-01T12:32:42;13.50;99.90
16200;DHT22;8207;52.494;4.654;2023-04-01T12:35:18;13.60;99.90
16200;DHT22;8207;52.494;4.654;2023-04-01T12:37:59;13.60;99.90
16200;DHT22;8207;52.494;4.654;2023-04-01T12:40:47;13.70;99.90
16200;DHT22;8207;52.494;4.654;2023-04-01T12:43:34;13.90;99.90
16200;DHT22;8207;52.494;4.654;2023-04-01T12:46:13;13.90;99.90
16200;DHT22;8207;52.494;4.654;2023-04-01T12:49:10;13.90;99.90
16200;DHT22;8207;52.494;4.654;2023-04-01T12:52:00;13.70;99.90
16200;DHT22;8207;52.494;4.654;2023-04-01T12:54:59;13.50;99.90
16200;DHT22;8207;52.494;4.654;2023-04-01T13:00:43;13.50;99.90
16200;DHT22;8207;52.494;4.654;2023-04-01T13:03:27;13.50;99.90
16200;DHT22;8207;52.494;4.654;2023-04-01T13:06:30;13.40;99.90
16200;DHT22;8207;52.494;4.654;2023-04-01T13:09:06;13.20;99.90
16200;DHT22;8207;52.494;4.654;2023-04-01T13:11:54;13.10;99.90
16200;DHT22;8207;52.494;4.654;2023-04-01T13:17:21;12.90;99.90
16200;DHT22;8207;52.494;4.654;2023-04-01T13:19:52;12.90;99.90
16200;DHT22;8207;52.494;4.654;2023-04-01T13:22:28;12.90;99.90
16200;DHT22;8207;52.494;4.654;2023-04-01T13:25:01;12.90;99.90
16200;DHT22;8207;52.494;4.654;2023-04-01T13:27:35;12.80;99.90
16200;DHT22;8207;52.494;4.654;2023-04-01T13:30:21;12.80;99.90
16200;DHT22;8207;52.494;4.654;2023-04-01T13:32:57;12.80;99.90
16200;DHT22;8207;52.494;4.654;2023-04-01T13:35:36;12.70;99.90
16200;DHT22;8207;52.494;4.654;2023-04-01T13:38:30;12.70;99.90
16200;DHT22;8207;52.494;4.654;2023-04-01T13:41:03;12.60;99.90
16200;DHT22;8207;52.494;4.654;2023-04-01T13:43:37;12.50;99.90
16200;DHT22;8207;52.494;4.654;2023-04-01T13:46:23;12.50;99.90
16200;DHT22;8207;52.494;4.654;2023-04-01T13:55:24;12.40;99.90
16200;DHT22;8207;52.494;4.654;2023-04-01T13:58:13;12.40;99.90
16200;DHT22;8207;52.494;4.654;2023-04-01T14:00:56;12.40;99.90
16200;DHT22;8207;52.494;4.654;2023-04-01T14:03:50;12.40;99.90
16200;DHT22;8207;52.494;4.654;2023-04-01T14:06:27;12.40;99.90
16200;DHT22;8207;52.494;4.654;2023-04-01T14:09:13;12.40;99.90
16200;DHT22;8207;52.494;4.654;2023-04-01T14:11:47;12.30;99.90
16200;DHT22;8207;52.494;4.654;2023-04-01T14:14:24;12.40;99.90
16200;DHT22;8207;52.494;4.654;2023-04-01T14:17:12;12.40;99.90
16200;DHT22;8207;52.494;4.654;2023-04-01T14:19:52;12.40;99.90
16200;DHT22;8207;52.494;4.654;2023-04-01T14:22:30;12.30;99.90
16200;DHT22;8207;52.494;4.654;2023-04-01T14:25:30;12.20;99.90
16200;DHT22;8207;52.494;4.654;2023-04-01T14:28:10;12.20;99.90
16200;DHT22;8207;52.494;4.654;2023-04-01T14:30:47;12.20;99.90
16200;DHT22;8207;52.494;4.654;2023-04-01T14:33:30;12.10;99.90
16200;DHT22;8207;52.494;4.654;2023-04-01T14:36:33;12.00;99.90
16200;DHT22;8207;52.494;4.654;2023-04-01T14:39:15;12.00;99.90
16200;DHT22;8207;52.494;4.654;2023-04-01T14:41:48;11.90;99.90
16200;DHT22;8207;52.494;4.654;2023-04-01T14:47:33;11.90;99.90
16200;DHT22;8207;52.494;4.654;2023-04-01T14:50:09;11.90;99.90
16200;DHT22;8207;52.494;4.654;2023-04-01T14:52:40;11.80;99.90
16200;DHT22;8207;52.494;4.654;2023-04-01T14:55:23;11.80;99.90
16200;DHT22;8207;52.494;4.654;2023-04-01T14:58:09;11.80;99.90
16200;DHT22;8207;52.494;4.654;2023-04-01T15:00:47;11.70;99.90
16200;DHT22;8207;52.494;4.654;2023-04-01T15:03:20;11.70;99.90
16200;DHT22;8207;52.494;4.654;2023-04-01T15:05:54;11.70;99.90
16200;DHT22;8207;52.494;4.654;2023-04-01T15:08:24;11.70;99.90
16200;DHT22;8207;52.494;4.654;2023-04-01T15:14:19;11.70;99.90
16200;DHT22;8207;52.494;4.654;2023-04-01T15:16:57;11.70;99.90
16200;DHT22;8207;52.494;4.654;2023-04-01T15:19:35;11.70;99.90
16200;DHT22;8207;52.494;4.654;2023-04-01T15:22:27;11.60;99.90
16200;DHT22;8207;52.494;4.654;2023-04-01T15:25:05;11.50;99.90
16200;DHT22;8207;52.494;4.654;2023-04-01T15:27:44;11.50;99.90
16200;DHT22;8207;52.494;4.654;2023-04-01T15:30:25;11.50;99.90
16200;DHT22;8207;52.494;4.654;2023-04-01T15:33:13;11.50;99.90
16200;DHT22;8207;52.494;4.654;2023-04-01T15:35:48;11.50;99.90
16200;DHT22;8207;52.494;4.654;2023-04-01T15:38:26;11.40;99.90
16200;DHT22;8207;52.494;4.654;2023-04-01T15:41:02;11.30;99.90
16200;DHT22;8207;52.494;4.654;2023-04-01T15:43:40;11.30;99.90
16200;DHT22;8207;52.494;4.654;2023-04-01T15:46:44;11.20;99.90
16200;DHT22;8207;52.494;4.654;2023-04-01T15:49:31;11.10;99.90
16200;DHT22;8207;52.494;4.654;2023-04-01T15:52:06;11.00;99.90
16200;DHT22;8207;52.494;4.654;2023-04-01T15:55:09;11.00;99.90
16200;DHT22;8207;52.494;4.654;2023-04-01T15:57:45;11.00;99.90
16200;DHT22;8207;52.494;4.654;2023-04-01T16:00:25;11.00;99.90
16200;DHT22;8207;52.494;4.654;2023-04-01T16:03:18;11.00;99.90
16200;DHT22;8207;52.494;4.654;2023-04-01T16:06:00;11.10;99.90
16200;DHT22;8207;52.494;4.654;2023-04-01T16:11:30;11.00;99.90
16200;DHT22;8207;52.494;4.654;2023-04-01T16:14:12;10.90;99.90
16200;DHT22;8207;52.494;4.654;2023-04-01T16:16:54;10.90;99.90
16200;DHT22;8207;52.494;4.654;2023-04-01T16:19:37;10.90;99.90
16200;DHT22;8207;52.494;4.654;2023-04-01T16:22:08;10.90;99.90
16200;DHT22;8207;52.494;4.654;2023-04-01T16:24:43;10.90;99.90
16200;DHT22;8207;52.494;4.654;2023-04-01T16:27:18;10.80;99.90
16200;DHT22;8207;52.494;4.654;2023-04-01T16:29:53;10.70;99.90
16200;DHT22;8207;52.494;4.654;2023-04-01T16:32:34;10.70;99.90
16200;DHT22;8207;52.494;4.654;2023-04-01T16:35:18;10.70;99.90
16200;DHT22;8207;52.494;4.654;2023-04-01T16:37:50;10.70;99.90
16200;DHT22;8207;52.494;4.654;2023-04-01T16:40:25;10.70;99.90
16200;DHT22;8207;52.494;4.654;2023-04-01T16:43:04;10.60;99.90
16200;DHT22;8207;52.494;4.654;2023-04-01T16:45:37;10.60;99.90
16200;DHT22;8207;52.494;4.654;2023-04-01T16:48:10;10.60;99.90
16200;DHT22;8207;52.494;4.654;2023-04-01T16:50:44;10.60;99.90
16200;DHT22;8207;52.494;4.654;2023-04-01T16:53:18;10.60;99.90
16200;DHT22;8207;52.494;4.654;2023-04-01T16:55:50;10.60;99.90
16200;DHT22;8207;52.494;4.654;2023-04-01T16:58:23;10.60;99.90
16200;DHT22;8207;52.494;4.654;2023-04-01T17:00:55;10.70;99.90
16200;DHT22;8207;52.494;4.654;2023-04-01T17:03:28;10.60;99.90
16200;DHT22;8207;52.494;4.654;2023-04-01T17:06:07;10.60;99.90
16200;DHT22;8207;52.494;4.654;2023-04-01T17:11:39;10.50;99.90
16200;DHT22;8207;52.494;4.654;2023-04-01T17:14:19;10.40;99.90
16200;DHT22;8207;52.494;4.654;2023-04-01T17:17:00;10.50;99.90
16200;DHT22;8207;52.494;4.654;2023-04-01T17:19:42;10.50;99.90
16200;DHT22;8207;52.494;4.654;2023-04-01T17:22:23;10.40;99.90
16200;DHT22;8207;52.494;4.654;2023-04-01T17:25:02;10.40;99.90
16200;DHT22;8207;52.494;4.654;2023-04-01T17:27:40;10.40;99.90
16200;DHT22;8207;52.494;4.654;2023-04-01T17:30:19;10.30;99.90
16200;DHT22;8207;52.494;4.654;2023-04-01T17:32:59;10.20;99.90
16200;DHT22;8207;52.494;4.654;2023-04-01T17:35:32;10.20;99.90
16200;DHT22;8207;52.494;4.654;2023-04-01T17:38:11;10.10;99.90
16200;DHT22;8207;52.494;4.654;2023-04-01T17:40:53;10.10;99.90
16200;DHT22;8207;52.494;4.654;2023-04-01T17:43:34;10.00;99.90
16200;DHT22;8207;52.494;4.654;2023-04-01T17:46:11;10.00;99.90
16200;DHT22;8207;52.494;4.654;2023-04-01T17:48:53;10.00;99.90
16200;DHT22;8207;52.494;4.654;2023-04-01T17:51:30;9.90;99.90
16200;DHT22;8207;52.494;4.654;2023-04-01T17:54:06;9.90;99.90
16200;DHT22;8207;52.494;4.654;2023-04-01T17:56:47;9.90;99.90
16200;DHT22;8207;52.494;4.654;2023-04-01T17:59:23;9.90;99.90
16200;DHT22;8207;52.494;4.654;2023-04-01T19:21:55;8.80;99.90
16200;DHT22;8207;52.494;4.654;2023-04-01T19:24:45;8.80;99.90
16200;DHT22;8207;52.494;4.654;2023-04-01T19:27:27;8.80;99.90
16200;DHT22;8207;52.494;4.654;2023-04-01T19:30:07;8.80;99.90
16200;DHT22;8207;52.494;4.654;2023-04-01T19:32:44;8.70;99.90
16200;DHT22;8207;52.494;4.654;2023-04-01T19:35:24;8.70;99.90